Weather at Stryn Airstrip

Public forecast

Using degrees Celsius for public forecast. Weather courtesy of forecast.io.

Closest aviation weather report (METAR) to Stryn Airstrip

Closest report is Sandane Airport, Anda, 19.0 nm (35.2 km) WSW.

2024/05/30 05:50 (retrieved 13 minutes ago)

ENSD 300550Z VRB01KT 9999 FEW012 14/10 Q1008 RMK WIND RWY 26 VRB03KT WIND 1140FT VRB03KT

Closest aviation forecast (TAF) to Stryn Airstrip

Closest forecast is Bergen Airport, Flesland, 106.8 nm (197.8 km) SSW.

2024/05/30 06:36 (retrieved 0 seconds ago)

TAF ENBR 300500Z 3006/3106 34008KT 9999 FEW040 BKN060 PROB40 TEMPO 3006/3022 SHRA BKN025CB PROB30 TEMPO 3014/3020 TS PROB40 TEMPO 3102/3106 1200 BCFG BKN003